sensor_id;sensor_type;location;lat;lon;timestamp;P1;durP1;ratioP1;P2;durP2;ratioP2
19343;SDS011;9808;52.402;16.678;2023-03-23T00:01:24;17.93;;;8.23;;
19343;SDS011;9808;52.402;16.678;2023-03-23T00:03:52;21.87;;;9.13;;
19343;SDS011;9808;52.402;16.678;2023-03-23T00:06:22;16.93;;;8.77;;
19343;SDS011;9808;52.402;16.678;2023-03-23T00:08:48;15.63;;;8.50;;
19343;SDS011;9808;52.402;16.678;2023-03-23T00:11:19;18.30;;;8.83;;
19343;SDS011;9808;52.402;16.678;2023-03-23T00:13:46;20.77;;;8.97;;
19343;SDS011;9808;52.402;16.678;2023-03-23T00:16:16;21.27;;;9.63;;
19343;SDS011;9808;52.402;16.678;2023-03-23T00:18:51;16.40;;;8.73;;
19343;SDS011;9808;52.402;16.678;2023-03-23T00:21:23;20.73;;;8.80;;
19343;SDS011;9808;52.402;16.678;2023-03-23T00:23:50;18.83;;;9.23;;
19343;SDS011;9808;52.402;16.678;2023-03-23T00:26:17;19.50;;;9.53;;
19343;SDS011;9808;52.402;16.678;2023-03-23T00:28:43;20.23;;;9.03;;
19343;SDS011;9808;52.402;16.678;2023-03-23T00:31:11;23.13;;;10.70;;
19343;SDS011;9808;52.402;16.678;2023-03-23T00:33:38;25.13;;;11.87;;
19343;SDS011;9808;52.402;16.678;2023-03-23T00:36:05;23.53;;;11.80;;
19343;SDS011;9808;52.402;16.678;2023-03-23T00:38:33;21.27;;;10.60;;
19343;SDS011;9808;52.402;16.678;2023-03-23T00:41:00;22.77;;;10.70;;
19343;SDS011;9808;52.402;16.678;2023-03-23T00:43:27;22.60;;;11.17;;
19343;SDS011;9808;52.402;16.678;2023-03-23T00:45:54;20.47;;;11.07;;
19343;SDS011;9808;52.402;16.678;2023-03-23T00:48:23;25.30;;;10.90;;
19343;SDS011;9808;52.402;16.678;2023-03-23T00:50:50;22.07;;;10.40;;
19343;SDS011;9808;52.402;16.678;2023-03-23T00:53:17;22.43;;;10.30;;
19343;SDS011;9808;52.402;16.678;2023-03-23T00:55:44;21.90;;;10.37;;
19343;SDS011;9808;52.402;16.678;2023-03-23T00:58:11;23.23;;;11.27;;
19343;SDS011;9808;52.402;16.678;2023-03-23T01:00:38;23.80;;;11.53;;
19343;SDS011;9808;52.402;16.678;2023-03-23T01:03:05;22.10;;;10.53;;
19343;SDS011;9808;52.402;16.678;2023-03-23T01:05:37;27.50;;;11.87;;
19343;SDS011;9808;52.402;16.678;2023-03-23T01:08:04;26.30;;;10.83;;
19343;SDS011;9808;52.402;16.678;2023-03-23T01:10:31;25.90;;;11.93;;
19343;SDS011;9808;52.402;16.678;2023-03-23T01:12:58;27.40;;;12.17;;
19343;SDS011;9808;52.402;16.678;2023-03-23T01:15:25;21.53;;;10.57;;
19343;SDS011;9808;52.402;16.678;2023-03-23T01:17:52;24.33;;;11.17;;
19343;SDS011;9808;52.402;16.678;2023-03-23T01:20:18;23.57;;;9.57;;
19343;SDS011;9808;52.402;16.678;2023-03-23T01:22:44;24.73;;;11.03;;
19343;SDS011;9808;52.402;16.678;2023-03-23T01:25:11;21.80;;;10.00;;
19343;SDS011;9808;52.402;16.678;2023-03-23T01:27:37;20.27;;;10.07;;
19343;SDS011;9808;52.402;16.678;2023-03-23T01:30:04;22.00;;;10.40;;
19343;SDS011;9808;52.402;16.678;2023-03-23T01:32:30;21.07;;;9.80;;
19343;SDS011;9808;52.402;16.678;2023-03-23T01:34:57;30.00;;;12.00;;
19343;SDS011;9808;52.402;16.678;2023-03-23T01:37:23;23.47;;;11.37;;
19343;SDS011;9808;52.402;16.678;2023-03-23T01:39:52;26.50;;;12.40;;
19343;SDS011;9808;52.402;16.678;2023-03-23T01:42:20;26.17;;;12.07;;
19343;SDS011;9808;52.402;16.678;2023-03-23T01:47:13;24.00;;;11.13;;
19343;SDS011;9808;52.402;16.678;2023-03-23T01:49:43;24.67;;;10.80;;
19343;SDS011;9808;52.402;16.678;2023-03-23T01:52:25;23.67;;;10.90;;
19343;SDS011;9808;52.402;16.678;2023-03-23T01:54:54;22.97;;;10.30;;
19343;SDS011;9808;52.402;16.678;2023-03-23T01:57:22;19.67;;;9.33;;
19343;SDS011;9808;52.402;16.678;2023-03-23T01:59:52;20.00;;;9.43;;
19343;SDS011;9808;52.402;16.678;2023-03-23T02:02:20;22.27;;;9.97;;
19343;SDS011;9808;52.402;16.678;2023-03-23T02:04:47;20.53;;;9.40;;
19343;SDS011;9808;52.402;16.678;2023-03-23T02:07:14;22.27;;;10.07;;
19343;SDS011;9808;52.402;16.678;2023-03-23T02:09:41;22.90;;;9.63;;
19343;SDS011;9808;52.402;16.678;2023-03-23T02:12:07;28.60;;;11.53;;
19343;SDS011;9808;52.402;16.678;2023-03-23T02:14:33;32.37;;;12.00;;
19343;SDS011;9808;52.402;16.678;2023-03-23T02:20:05;29.70;;;11.20;;
19343;SDS011;9808;52.402;16.678;2023-03-23T02:41:19;35.83;;;13.43;;
19343;SDS011;9808;52.402;16.678;2023-03-23T02:43:46;27.47;;;12.27;;
19343;SDS011;9808;52.402;16.678;2023-03-23T02:46:13;30.23;;;10.93;;
19343;SDS011;9808;52.402;16.678;2023-03-23T02:48:39;23.97;;;10.87;;
19343;SDS011;9808;52.402;16.678;2023-03-23T02:51:06;24.60;;;9.43;;
19343;SDS011;9808;52.402;16.678;2023-03-23T02:53:33;20.87;;;9.50;;
19343;SDS011;9808;52.402;16.678;2023-03-23T02:56:00;21.07;;;9.63;;
19343;SDS011;9808;52.402;16.678;2023-03-23T02:58:28;21.73;;;9.83;;
19343;SDS011;9808;52.402;16.678;2023-03-23T03:00:55;28.73;;;9.80;;
19343;SDS011;9808;52.402;16.678;2023-03-23T03:03:22;24.60;;;10.37;;
19343;SDS011;9808;52.402;16.678;2023-03-23T03:05:58;24.93;;;11.50;;
19343;SDS011;9808;52.402;16.678;2023-03-23T03:11:14;24.20;;;10.90;;
19343;SDS011;9808;52.402;16.678;2023-03-23T03:16:23;23.47;;;10.93;;
19343;SDS011;9808;52.402;16.678;2023-03-23T03:18:53;26.87;;;11.53;;
19343;SDS011;9808;52.402;16.678;2023-03-23T03:21:20;21.33;;;10.53;;
19343;SDS011;9808;52.402;16.678;2023-03-23T03:23:50;24.53;;;10.63;;
19343;SDS011;9808;52.402;16.678;2023-03-23T03:26:18;26.93;;;11.07;;
19343;SDS011;9808;52.402;16.678;2023-03-23T03:28:46;25.87;;;10.50;;
19343;SDS011;9808;52.402;16.678;2023-03-23T03:31:13;30.20;;;10.93;;
19343;SDS011;9808;52.402;16.678;2023-03-23T03:33:41;20.87;;;9.50;;
19343;SDS011;9808;52.402;16.678;2023-03-23T03:36:07;22.63;;;9.77;;
19343;SDS011;9808;52.402;16.678;2023-03-23T03:38:41;24.77;;;10.03;;
19343;SDS011;9808;52.402;16.678;2023-03-23T03:41:07;18.70;;;9.47;;
19343;SDS011;9808;52.402;16.678;2023-03-23T03:43:33;17.47;;;9.33;;
19343;SDS011;9808;52.402;16.678;2023-03-23T03:46:00;20.53;;;8.97;;
19343;SDS011;9808;52.402;16.678;2023-03-23T03:48:26;22.37;;;9.93;;
19343;SDS011;9808;52.402;16.678;2023-03-23T03:50:52;25.10;;;9.53;;
19343;SDS011;9808;52.402;16.678;2023-03-23T03:53:22;15.07;;;8.53;;
19343;SDS011;9808;52.402;16.678;2023-03-23T03:55:48;19.83;;;8.50;;
19343;SDS011;9808;52.402;16.678;2023-03-23T03:58:14;18.03;;;8.07;;
19343;SDS011;9808;52.402;16.678;2023-03-23T04:00:41;17.70;;;7.27;;
19343;SDS011;9808;52.402;16.678;2023-03-23T04:03:07;12.50;;;6.17;;
19343;SDS011;9808;52.402;16.678;2023-03-23T04:05:34;12.67;;;6.57;;
19343;SDS011;9808;52.402;16.678;2023-03-23T04:08:02;11.63;;;5.73;;
19343;SDS011;9808;52.402;16.678;2023-03-23T04:10:29;11.43;;;5.80;;
19343;SDS011;9808;52.402;16.678;2023-03-23T04:12:55;11.43;;;5.70;;
19343;SDS011;9808;52.402;16.678;2023-03-23T04:15:22;10.57;;;5.70;;
19343;SDS011;9808;52.402;16.678;2023-03-23T04:17:48;15.27;;;5.60;;
19343;SDS011;9808;52.402;16.678;2023-03-23T04:20:15;9.87;;;5.20;;
19343;SDS011;9808;52.402;16.678;2023-03-23T04:22:43;11.00;;;5.20;;
19343;SDS011;9808;52.402;16.678;2023-03-23T04:25:10;9.57;;;5.27;;
19343;SDS011;9808;52.402;16.678;2023-03-23T04:27:37;9.13;;;4.83;;
19343;SDS011;9808;52.402;16.678;2023-03-23T04:30:04;9.40;;;4.70;;
19343;SDS011;9808;52.402;16.678;2023-03-23T04:32:31;11.67;;;5.47;;
19343;SDS011;9808;52.402;16.678;2023-03-23T04:34:58;10.83;;;5.23;;
19343;SDS011;9808;52.402;16.678;2023-03-23T04:37:27;11.17;;;4.53;;
19343;SDS011;9808;52.402;16.678;2023-03-23T04:39:59;18.17;;;5.07;;
19343;SDS011;9808;52.402;16.678;2023-03-23T04:42:29;10.63;;;4.60;;
19343;SDS011;9808;52.402;16.678;2023-03-23T04:44:58;13.67;;;4.10;;
19343;SDS011;9808;52.402;16.678;2023-03-23T04:47:26;8.43;;;4.33;;
19343;SDS011;9808;52.402;16.678;2023-03-23T04:49:56;9.80;;;4.47;;
19343;SDS011;9808;52.402;16.678;2023-03-23T04:52:26;9.03;;;4.20;;
19343;SDS011;9808;52.402;16.678;2023-03-23T04:54:53;8.00;;;4.43;;
19343;SDS011;9808;52.402;16.678;2023-03-23T04:57:23;8.23;;;4.00;;
19343;SDS011;9808;52.402;16.678;2023-03-23T04:59:53;11.33;;;3.97;;
19343;SDS011;9808;52.402;16.678;2023-03-23T05:02:19;8.97;;;3.80;;
19343;SDS011;9808;52.402;16.678;2023-03-23T05:04:46;8.93;;;4.33;;
19343;SDS011;9808;52.402;16.678;2023-03-23T05:07:12;10.10;;;3.73;;
19343;SDS011;9808;52.402;16.678;2023-03-23T05:09:38;10.10;;;4.10;;
19343;SDS011;9808;52.402;16.678;2023-03-23T05:12:07;10.43;;;3.93;;
19343;SDS011;9808;52.402;16.678;2023-03-23T05:14:34;7.37;;;3.47;;
19343;SDS011;9808;52.402;16.678;2023-03-23T05:17:01;8.23;;;3.90;;
19343;SDS011;9808;52.402;16.678;2023-03-23T05:19:28;7.37;;;3.80;;
19343;SDS011;9808;52.402;16.678;2023-03-23T05:21:56;7.20;;;3.60;;
19343;SDS011;9808;52.402;16.678;2023-03-23T05:24:30;8.83;;;3.47;;
19343;SDS011;9808;52.402;16.678;2023-03-23T05:27:00;7.83;;;3.63;;
19343;SDS011;9808;52.402;16.678;2023-03-23T05:29:27;10.83;;;4.07;;
19343;SDS011;9808;52.402;16.678;2023-03-23T05:31:55;9.17;;;3.83;;
19343;SDS011;9808;52.402;16.678;2023-03-23T05:34:25;9.07;;;3.70;;
19343;SDS011;9808;52.402;16.678;2023-03-23T05:36:51;9.20;;;3.67;;
19343;SDS011;9808;52.402;16.678;2023-03-23T05:39:18;8.93;;;3.70;;
19343;SDS011;9808;52.402;16.678;2023-03-23T05:41:44;10.80;;;3.60;;
19343;SDS011;9808;52.402;16.678;2023-03-23T05:44:11;10.00;;;3.10;;
19343;SDS011;9808;52.402;16.678;2023-03-23T05:46:38;9.93;;;3.83;;
19343;SDS011;9808;52.402;16.678;2023-03-23T05:49:05;8.17;;;3.20;;
19343;SDS011;9808;52.402;16.678;2023-03-23T05:51:31;8.73;;;3.13;;
19343;SDS011;9808;52.402;16.678;2023-03-23T05:53:57;8.37;;;3.43;;
19343;SDS011;9808;52.402;16.678;2023-03-23T05:56:23;8.20;;;3.23;;
19343;SDS011;9808;52.402;16.678;2023-03-23T05:58:49;9.23;;;3.43;;
19343;SDS011;9808;52.402;16.678;2023-03-23T06:01:18;7.80;;;3.60;;
19343;SDS011;9808;52.402;16.678;2023-03-23T06:03:44;7.97;;;3.33;;
19343;SDS011;9808;52.402;16.678;2023-03-23T06:06:10;14.60;;;6.40;;
19343;SDS011;9808;52.402;16.678;2023-03-23T06:08:37;12.17;;;4.30;;
19343;SDS011;9808;52.402;16.678;2023-03-23T06:11:04;8.50;;;3.17;;
19343;SDS011;9808;52.402;16.678;2023-03-23T06:13:31;10.17;;;4.10;;
19343;SDS011;9808;52.402;16.678;2023-03-23T06:15:57;10.60;;;3.60;;
19343;SDS011;9808;52.402;16.678;2023-03-23T06:18:23;15.80;;;4.80;;
19343;SDS011;9808;52.402;16.678;2023-03-23T06:20:50;9.30;;;4.00;;
19343;SDS011;9808;52.402;16.678;2023-03-23T06:23:17;15.48;;;5.80;;
19343;SDS011;9808;52.402;16.678;2023-03-23T06:25:43;10.73;;;3.60;;
19343;SDS011;9808;52.402;16.678;2023-03-23T06:28:09;8.73;;;4.10;;
19343;SDS011;9808;52.402;16.678;2023-03-23T06:30:36;10.37;;;4.10;;
19343;SDS011;9808;52.402;16.678;2023-03-23T06:33:03;10.70;;;4.32;;
19343;SDS011;9808;52.402;16.678;2023-03-23T06:35:30;11.40;;;4.25;;
19343;SDS011;9808;52.402;16.678;2023-03-23T06:37:57;10.75;;;3.58;;
19343;SDS011;9808;52.402;16.678;2023-03-23T06:40:27;7.90;;;3.78;;
19343;SDS011;9808;52.402;16.678;2023-03-23T06:42:54;6.38;;;3.17;;
19343;SDS011;9808;52.402;16.678;2023-03-23T06:45:20;7.78;;;3.55;;
19343;SDS011;9808;52.402;16.678;2023-03-23T06:47:46;9.52;;;2.95;;
19343;SDS011;9808;52.402;16.678;2023-03-23T06:50:16;7.50;;;2.50;;
19343;SDS011;9808;52.402;16.678;2023-03-23T06:52:46;14.50;;;3.05;;
19343;SDS011;9808;52.402;16.678;2023-03-23T06:55:13;7.10;;;2.30;;
19343;SDS011;9808;52.402;16.678;2023-03-23T06:57:39;6.15;;;2.60;;
19343;SDS011;9808;52.402;16.678;2023-03-23T07:00:05;8.02;;;2.45;;
19343;SDS011;9808;52.402;16.678;2023-03-23T07:02:34;8.25;;;2.45;;
19343;SDS011;9808;52.402;16.678;2023-03-23T07:05:00;6.78;;;2.72;;
19343;SDS011;9808;52.402;16.678;2023-03-23T07:07:28;6.35;;;2.60;;
19343;SDS011;9808;52.402;16.678;2023-03-23T07:09:54;6.38;;;2.55;;
19343;SDS011;9808;52.402;16.678;2023-03-23T07:12:21;7.72;;;2.50;;
19343;SDS011;9808;52.402;16.678;2023-03-23T07:14:47;6.82;;;2.17;;
19343;SDS011;9808;52.402;16.678;2023-03-23T07:17:14;5.85;;;2.20;;
19343;SDS011;9808;52.402;16.678;2023-03-23T07:19:40;6.85;;;2.55;;
19343;SDS011;9808;52.402;16.678;2023-03-23T07:22:06;4.78;;;2.00;;
19343;SDS011;9808;52.402;16.678;2023-03-23T07:24:33;5.55;;;2.13;;
19343;SDS011;9808;52.402;16.678;2023-03-23T07:27:00;4.07;;;1.70;;
19343;SDS011;9808;52.402;16.678;2023-03-23T07:29:26;6.93;;;2.00;;
19343;SDS011;9808;52.402;16.678;2023-03-23T07:31:53;5.90;;;2.15;;
19343;SDS011;9808;52.402;16.678;2023-03-23T07:34:19;5.97;;;2.13;;
19343;SDS011;9808;52.402;16.678;2023-03-23T07:36:46;5.90;;;1.95;;
19343;SDS011;9808;52.402;16.678;2023-03-23T07:39:13;5.45;;;1.90;;
19343;SDS011;9808;52.402;16.678;2023-03-23T07:41:39;5.75;;;1.90;;
19343;SDS011;9808;52.402;16.678;2023-03-23T07:44:05;3.70;;;1.83;;
19343;SDS011;9808;52.402;16.678;2023-03-23T07:46:32;5.40;;;2.30;;
19343;SDS011;9808;52.402;16.678;2023-03-23T07:48:58;3.22;;;1.60;;
19343;SDS011;9808;52.402;16.678;2023-03-23T07:51:29;4.38;;;1.98;;
19343;SDS011;9808;52.402;16.678;2023-03-23T07:53:56;6.53;;;2.03;;
19343;SDS011;9808;52.402;16.678;2023-03-23T07:56:22;7.80;;;2.45;;
19343;SDS011;9808;52.402;16.678;2023-03-23T07:58:48;5.28;;;2.30;;
19343;SDS011;9808;52.402;16.678;2023-03-23T08:01:14;4.30;;;1.85;;
19343;SDS011;9808;52.402;16.678;2023-03-23T08:03:41;5.90;;;2.25;;
19343;SDS011;9808;52.402;16.678;2023-03-23T08:06:07;5.32;;;2.03;;
19343;SDS011;9808;52.402;16.678;2023-03-23T08:08:35;5.30;;;2.10;;
19343;SDS011;9808;52.402;16.678;2023-03-23T08:11:02;3.83;;;1.70;;
19343;SDS011;9808;52.402;16.678;2023-03-23T08:13:29;3.58;;;1.92;;
19343;SDS011;9808;52.402;16.678;2023-03-23T08:15:55;3.95;;;1.55;;
19343;SDS011;9808;52.402;16.678;2023-03-23T08:18:21;5.57;;;1.88;;
19343;SDS011;9808;52.402;16.678;2023-03-23T08:20:48;6.68;;;2.13;;
19343;SDS011;9808;52.402;16.678;2023-03-23T08:23:14;4.68;;;2.03;;
19343;SDS011;9808;52.402;16.678;2023-03-23T08:25:42;4.47;;;2.00;;
19343;SDS011;9808;52.402;16.678;2023-03-23T08:28:08;5.07;;;2.13;;
19343;SDS011;9808;52.402;16.678;2023-03-23T08:30:34;6.05;;;2.47;;
19343;SDS011;9808;52.402;16.678;2023-03-23T08:33:03;5.72;;;2.30;;
19343;SDS011;9808;52.402;16.678;2023-03-23T08:35:30;4.25;;;1.80;;
19343;SDS011;9808;52.402;16.678;2023-03-23T08:37:56;3.72;;;1.65;;
19343;SDS011;9808;52.402;16.678;2023-03-23T08:40:23;5.45;;;2.00;;
19343;SDS011;9808;52.402;16.678;2023-03-23T08:42:50;5.95;;;2.10;;
19343;SDS011;9808;52.402;16.678;2023-03-23T08:45:18;6.25;;;2.30;;
19343;SDS011;9808;52.402;16.678;2023-03-23T08:47:44;5.28;;;2.22;;
19343;SDS011;9808;52.402;16.678;2023-03-23T08:50:13;6.63;;;2.20;;
19343;SDS011;9808;52.402;16.678;2023-03-23T08:52:39;3.47;;;1.90;;
19343;SDS011;9808;52.402;16.678;2023-03-23T08:55:06;7.78;;;2.35;;
19343;SDS011;9808;52.402;16.678;2023-03-23T08:57:34;5.15;;;2.00;;
19343;SDS011;9808;52.402;16.678;2023-03-23T09:00:01;5.25;;;2.17;;
19343;SDS011;9808;52.402;16.678;2023-03-23T09:02:38;6.78;;;2.05;;
19343;SDS011;9808;52.402;16.678;2023-03-23T09:05:04;5.38;;;2.10;;
19343;SDS011;9808;52.402;16.678;2023-03-23T09:07:32;5.65;;;2.25;;
19343;SDS011;9808;52.402;16.678;2023-03-23T09:09:58;4.75;;;1.90;;
19343;SDS011;9808;52.402;16.678;2023-03-23T09:12:24;5.90;;;2.30;;
19343;SDS011;9808;52.402;16.678;2023-03-23T09:14:51;8.90;;;2.20;;
19343;SDS011;9808;52.402;16.678;2023-03-23T09:17:17;4.38;;;1.80;;
19343;SDS011;9808;52.402;16.678;2023-03-23T09:19:43;5.45;;;2.00;;
19343;SDS011;9808;52.402;16.678;2023-03-23T09:22:09;8.40;;;2.20;;
19343;SDS011;9808;52.402;16.678;2023-03-23T09:24:36;4.45;;;1.50;;
19343;SDS011;9808;52.402;16.678;2023-03-23T09:27:02;6.43;;;1.70;;
19343;SDS011;9808;52.402;16.678;2023-03-23T09:29:29;9.27;;;1.60;;
19343;SDS011;9808;52.402;16.678;2023-03-23T09:31:56;3.58;;;1.55;;
19343;SDS011;9808;52.402;16.678;2023-03-23T09:34:23;5.15;;;1.77;;
19343;SDS011;9808;52.402;16.678;2023-03-23T09:36:49;11.57;;;2.85;;
19343;SDS011;9808;52.402;16.678;2023-03-23T09:39:17;6.55;;;1.63;;
19343;SDS011;9808;52.402;16.678;2023-03-23T09:44:35;3.50;;;1.52;;
19343;SDS011;9808;52.402;16.678;2023-03-23T09:49:34;6.95;;;1.73;;
19343;SDS011;9808;52.402;16.678;2023-03-23T09:52:09;3.25;;;1.20;;
19343;SDS011;9808;52.402;16.678;2023-03-23T09:54:37;2.90;;;1.48;;
19343;SDS011;9808;52.402;16.678;2023-03-23T09:57:05;3.22;;;1.40;;
19343;SDS011;9808;52.402;16.678;2023-03-23T10:02:09;6.57;;;1.58;;
19343;SDS011;9808;52.402;16.678;2023-03-23T10:04:47;7.80;;;2.17;;
19343;SDS011;9808;52.402;16.678;2023-03-23T10:07:14;6.20;;;1.98;;
19343;SDS011;9808;52.402;16.678;2023-03-23T10:09:42;4.10;;;1.50;;
19343;SDS011;9808;52.402;16.678;2023-03-23T10:12:14;4.07;;;1.67;;
19343;SDS011;9808;52.402;16.678;2023-03-23T10:14:52;3.72;;;1.52;;
19343;SDS011;9808;52.402;16.678;2023-03-23T10:17:28;6.20;;;1.88;;
19343;SDS011;9808;52.402;16.678;2023-03-23T10:22:26;3.90;;;1.60;;
19343;SDS011;9808;52.402;16.678;2023-03-23T10:24:57;3.75;;;1.73;;
19343;SDS011;9808;52.402;16.678;2023-03-23T10:27:26;5.40;;;1.58;;
19343;SDS011;9808;52.402;16.678;2023-03-23T10:29:57;4.45;;;1.85;;
19343;SDS011;9808;52.402;16.678;2023-03-23T10:35:04;5.13;;;2.30;;
19343;SDS011;9808;52.402;16.678;2023-03-23T10:37:38;4.70;;;2.15;;
19343;SDS011;9808;52.402;16.678;2023-03-23T10:40:11;6.18;;;2.20;;
19343;SDS011;9808;52.402;16.678;2023-03-23T10:42:40;4.07;;;1.95;;
19343;SDS011;9808;52.402;16.678;2023-03-23T10:45:22;5.78;;;2.20;;
19343;SDS011;9808;52.402;16.678;2023-03-23T10:47:59;4.05;;;1.90;;
19343;SDS011;9808;52.402;16.678;2023-03-23T10:50:28;5.97;;;2.00;;
19343;SDS011;9808;52.402;16.678;2023-03-23T10:52:56;4.32;;;2.05;;
19343;SDS011;9808;52.402;16.678;2023-03-23T10:55:23;4.63;;;1.90;;
19343;SDS011;9808;52.402;16.678;2023-03-23T10:58:02;4.25;;;1.70;;
19343;SDS011;9808;52.402;16.678;2023-03-23T11:00:29;6.05;;;2.25;;
19343;SDS011;9808;52.402;16.678;2023-03-23T11:02:58;4.63;;;1.50;;
19343;SDS011;9808;52.402;16.678;2023-03-23T11:05:26;3.15;;;1.40;;
19343;SDS011;9808;52.402;16.678;2023-03-23T11:07:54;7.03;;;1.80;;
19343;SDS011;9808;52.402;16.678;2023-03-23T11:10:26;4.68;;;1.75;;
19343;SDS011;9808;52.402;16.678;2023-03-23T11:12:56;3.17;;;1.60;;
19343;SDS011;9808;52.402;16.678;2023-03-23T11:15:25;4.28;;;1.45;;
19343;SDS011;9808;52.402;16.678;2023-03-23T11:17:55;2.50;;;1.05;;
19343;SDS011;9808;52.402;16.678;2023-03-23T11:20:24;4.63;;;1.33;;
19343;SDS011;9808;52.402;16.678;2023-03-23T11:22:51;6.50;;;1.83;;
19343;SDS011;9808;52.402;16.678;2023-03-23T11:25:18;5.10;;;1.40;;
19343;SDS011;9808;52.402;16.678;2023-03-23T11:27:44;3.60;;;1.30;;
19343;SDS011;9808;52.402;16.678;2023-03-23T11:30:18;3.83;;;1.33;;
19343;SDS011;9808;52.402;16.678;2023-03-23T11:32:46;3.05;;;1.33;;
19343;SDS011;9808;52.402;16.678;2023-03-23T11:35:17;3.08;;;1.20;;
19343;SDS011;9808;52.402;16.678;2023-03-23T11:37:47;2.35;;;1.13;;
19343;SDS011;9808;52.402;16.678;2023-03-23T11:40:15;2.78;;;1.15;;
19343;SDS011;9808;52.402;16.678;2023-03-23T11:43:18;3.17;;;1.30;;
19343;SDS011;9808;52.402;16.678;2023-03-23T11:45:35;8.00;;;1.58;;
19343;SDS011;9808;52.402;16.678;2023-03-23T11:50:29;3.55;;;1.58;;
19343;SDS011;9808;52.402;16.678;2023-03-23T11:53:09;7.95;;;1.70;;
19343;SDS011;9808;52.402;16.678;2023-03-23T11:58:16;3.80;;;1.50;;
19343;SDS011;9808;52.402;16.678;2023-03-23T12:00:45;3.05;;;1.30;;
19343;SDS011;9808;52.402;16.678;2023-03-23T12:11:23;3.60;;;1.50;;
19343;SDS011;9808;52.402;16.678;2023-03-23T12:18:47;2.75;;;1.20;;
19343;SDS011;9808;52.402;16.678;2023-03-23T12:26:20;4.07;;;1.52;;
19343;SDS011;9808;52.402;16.678;2023-03-23T12:31:35;4.35;;;1.60;;
19343;SDS011;9808;52.402;16.678;2023-03-23T12:34:20;2.85;;;1.42;;
19343;SDS011;9808;52.402;16.678;2023-03-23T12:42:52;3.95;;;1.80;;
19343;SDS011;9808;52.402;16.678;2023-03-23T12:52:49;5.32;;;1.70;;
19343;SDS011;9808;52.402;16.678;2023-03-23T13:07:56;6.68;;;2.08;;
19343;SDS011;9808;52.402;16.678;2023-03-23T13:10:26;4.85;;;2.00;;
19343;SDS011;9808;52.402;16.678;2023-03-23T13:12:54;5.95;;;2.35;;
19343;SDS011;9808;52.402;16.678;2023-03-23T13:15:23;5.20;;;2.25;;
19343;SDS011;9808;52.402;16.678;2023-03-23T13:23:19;3.50;;;1.73;;
19343;SDS011;9808;52.402;16.678;2023-03-23T13:25:51;3.40;;;1.73;;
19343;SDS011;9808;52.402;16.678;2023-03-23T13:28:21;4.35;;;1.70;;
19343;SDS011;9808;52.402;16.678;2023-03-23T13:31:24;4.55;;;1.70;;
19343;SDS011;9808;52.402;16.678;2023-03-23T13:33:49;5.45;;;1.70;;
19343;SDS011;9808;52.402;16.678;2023-03-23T13:36:16;5.20;;;1.90;;
19343;SDS011;9808;52.402;16.678;2023-03-23T13:38:47;4.05;;;1.75;;
19343;SDS011;9808;52.402;16.678;2023-03-23T13:41:15;4.22;;;1.80;;
19343;SDS011;9808;52.402;16.678;2023-03-23T13:43:43;3.85;;;1.70;;
19343;SDS011;9808;52.402;16.678;2023-03-23T13:46:23;5.07;;;2.20;;
19343;SDS011;9808;52.402;16.678;2023-03-23T13:49:02;7.50;;;2.10;;
19343;SDS011;9808;52.402;16.678;2023-03-23T14:02:26;3.90;;;1.80;;
19343;SDS011;9808;52.402;16.678;2023-03-23T14:04:43;4.47;;;1.63;;
19343;SDS011;9808;52.402;16.678;2023-03-23T14:07:12;3.92;;;1.60;;
19343;SDS011;9808;52.402;16.678;2023-03-23T14:09:44;4.28;;;1.95;;
19343;SDS011;9808;52.402;16.678;2023-03-23T14:14:41;7.40;;;2.03;;
19343;SDS011;9808;52.402;16.678;2023-03-23T14:17:12;5.25;;;2.20;;
19343;SDS011;9808;52.402;16.678;2023-03-23T14:19:39;4.55;;;1.95;;
19343;SDS011;9808;52.402;16.678;2023-03-23T14:22:16;4.25;;;2.17;;
19343;SDS011;9808;52.402;16.678;2023-03-23T14:24:42;5.25;;;1.95;;
19343;SDS011;9808;52.402;16.678;2023-03-23T14:27:09;6.63;;;2.42;;
19343;SDS011;9808;52.402;16.678;2023-03-23T14:29:36;6.60;;;2.53;;
19343;SDS011;9808;52.402;16.678;2023-03-23T14:32:02;4.70;;;2.13;;
19343;SDS011;9808;52.402;16.678;2023-03-23T14:34:31;7.13;;;2.08;;
19343;SDS011;9808;52.402;16.678;2023-03-23T14:36:58;4.03;;;1.80;;
19343;SDS011;9808;52.402;16.678;2023-03-23T14:39:26;4.97;;;1.65;;
19343;SDS011;9808;52.402;16.678;2023-03-23T14:41:53;3.35;;;1.60;;
19343;SDS011;9808;52.402;16.678;2023-03-23T14:44:43;5.88;;;1.90;;
19343;SDS011;9808;52.402;16.678;2023-03-23T14:47:09;5.05;;;1.90;;
19343;SDS011;9808;52.402;16.678;2023-03-23T14:49:37;4.50;;;1.80;;
19343;SDS011;9808;52.402;16.678;2023-03-23T14:52:14;4.20;;;2.00;;
19343;SDS011;9808;52.402;16.678;2023-03-23T14:54:41;3.67;;;1.70;;
19343;SDS011;9808;52.402;16.678;2023-03-23T14:57:12;3.33;;;1.42;;
19343;SDS011;9808;52.402;16.678;2023-03-23T14:59:40;3.03;;;1.50;;
19343;SDS011;9808;52.402;16.678;2023-03-23T15:02:08;12.68;;;2.05;;
19343;SDS011;9808;52.402;16.678;2023-03-23T15:04:36;2.75;;;1.45;;
19343;SDS011;9808;52.402;16.678;2023-03-23T15:07:03;3.67;;;1.83;;
19343;SDS011;9808;52.402;16.678;2023-03-23T15:09:30;5.82;;;1.83;;
19343;SDS011;9808;52.402;16.678;2023-03-23T15:12:01;4.47;;;1.88;;
19343;SDS011;9808;52.402;16.678;2023-03-23T15:14:44;5.18;;;1.70;;
19343;SDS011;9808;52.402;16.678;2023-03-23T15:17:11;5.13;;;2.00;;
19343;SDS011;9808;52.402;16.678;2023-03-23T15:19:44;6.70;;;1.88;;
19343;SDS011;9808;52.402;16.678;2023-03-23T15:22:19;3.90;;;1.75;;
19343;SDS011;9808;52.402;16.678;2023-03-23T15:24:46;5.55;;;1.42;;
19343;SDS011;9808;52.402;16.678;2023-03-23T15:27:23;4.28;;;1.95;;
19343;SDS011;9808;52.402;16.678;2023-03-23T15:32:20;4.50;;;2.05;;
19343;SDS011;9808;52.402;16.678;2023-03-23T15:34:47;5.43;;;2.35;;
19343;SDS011;9808;52.402;16.678;2023-03-23T15:37:21;4.57;;;2.10;;
19343;SDS011;9808;52.402;16.678;2023-03-23T15:39:47;4.20;;;1.90;;
19343;SDS011;9808;52.402;16.678;2023-03-23T15:52:35;4.95;;;2.00;;
19343;SDS011;9808;52.402;16.678;2023-03-23T15:55:01;6.40;;;2.15;;
19343;SDS011;9808;52.402;16.678;2023-03-23T15:57:27;4.88;;;1.90;;
19343;SDS011;9808;52.402;16.678;2023-03-23T15:59:53;8.45;;;2.20;;
19343;SDS011;9808;52.402;16.678;2023-03-23T16:02:21;6.88;;;2.50;;
19343;SDS011;9808;52.402;16.678;2023-03-23T16:04:50;5.10;;;2.15;;
19343;SDS011;9808;52.402;16.678;2023-03-23T16:07:19;6.55;;;2.42;;
19343;SDS011;9808;52.402;16.678;2023-03-23T16:09:47;4.65;;;2.25;;
19343;SDS011;9808;52.402;16.678;2023-03-23T16:12:14;5.57;;;2.80;;
19343;SDS011;9808;52.402;16.678;2023-03-23T16:14:43;6.50;;;3.00;;
19343;SDS011;9808;52.402;16.678;2023-03-23T16:17:11;6.85;;;3.13;;
19343;SDS011;9808;52.402;16.678;2023-03-23T16:19:41;9.68;;;3.30;;
19343;SDS011;9808;52.402;16.678;2023-03-23T16:22:08;12.77;;;5.22;;
19343;SDS011;9808;52.402;16.678;2023-03-23T16:24:35;10.68;;;5.35;;
19343;SDS011;9808;52.402;16.678;2023-03-23T16:27:03;9.20;;;4.57;;
19343;SDS011;9808;52.402;16.678;2023-03-23T16:29:31;9.52;;;4.03;;
19343;SDS011;9808;52.402;16.678;2023-03-23T16:32:18;7.18;;;3.45;;
19343;SDS011;9808;52.402;16.678;2023-03-23T16:34:46;8.48;;;4.00;;
19343;SDS011;9808;52.402;16.678;2023-03-23T16:37:13;8.15;;;3.78;;
19343;SDS011;9808;52.402;16.678;2023-03-23T16:39:41;6.45;;;3.30;;
19343;SDS011;9808;52.402;16.678;2023-03-23T16:42:09;6.03;;;3.38;;
19343;SDS011;9808;52.402;16.678;2023-03-23T16:44:36;8.95;;;3.53;;
19343;SDS011;9808;52.402;16.678;2023-03-23T16:47:03;7.57;;;3.28;;
19343;SDS011;9808;52.402;16.678;2023-03-23T16:49:31;13.05;;;4.00;;
19343;SDS011;9808;52.402;16.678;2023-03-23T16:51:58;8.68;;;3.83;;
19343;SDS011;9808;52.402;16.678;2023-03-23T16:54:25;8.18;;;3.30;;